Totz, Kentucky
Current Conditions -  °F | °C
As of 4:15 PM on Monday 24 Nov 2014 (Local Time) from KI35 Reporting Station
Clear Clear  
Wind Chill: 64°   Ceiling: Unl
Heat Index: 64°   Visibility: 10mi
Dew Point: 36°   Wind: 13mph
Humidity: 34%   Direction: 250°WSW
Pressure: 29.74"   Gusts: 22mph
Location:  36.95°N, 83.12°W
Report Text: KI35 242115Z AUTO 25011G19KT 220V300 10SM CLR 18/02 A2974 RMK AO1
Loading
Personal Weather Stations






























Interactive Weather Map New forecast layout! Learn more

10-Day Weather Forecast

Advertisements
Track Severe Weather on mobile